sensor_id;sensor_type;location;lat;lon;timestamp;pressure;altitude;pressure_sealevel;temperature;humidity
10706;BME280;5404;42.656;23.336;2023-12-20T00:01:00;95165.94;;;-1.52;83.32
10706;BME280;5404;42.656;23.336;2023-12-20T00:03:26;95156.09;;;-1.61;83.45
10706;BME280;5404;42.656;23.336;2023-12-20T00:05:51;95150.75;;;-1.61;82.97
10706;BME280;5404;42.656;23.336;2023-12-20T00:08:17;95132.09;;;-1.69;82.70
10706;BME280;5404;42.656;23.336;2023-12-20T00:10:45;95144.31;;;-1.60;82.78
10706;BME280;5404;42.656;23.336;2023-12-20T00:13:11;95143.25;;;-1.67;82.71
10706;BME280;5404;42.656;23.336;2023-12-20T00:15:36;95139.28;;;-1.61;82.33
10706;BME280;5404;42.656;23.336;2023-12-20T00:18:02;95142.63;;;-1.64;82.51
10706;BME280;5404;42.656;23.336;2023-12-20T00:20:28;95136.66;;;-1.70;82.60
10706;BME280;5404;42.656;23.336;2023-12-20T00:22:55;95117.53;;;-1.72;81.99
10706;BME280;5404;42.656;23.336;2023-12-20T00:25:21;95138.38;;;-1.65;81.90
10706;BME280;5404;42.656;23.336;2023-12-20T00:27:46;95128.63;;;-1.70;82.11
10706;BME280;5404;42.656;23.336;2023-12-20T00:30:12;95128.72;;;-1.78;82.20
10706;BME280;5404;42.656;23.336;2023-12-20T00:32:38;95122.59;;;-1.79;82.29
10706;BME280;5404;42.656;23.336;2023-12-20T00:35:03;95118.94;;;-1.74;82.26
10706;BME280;5404;42.656;23.336;2023-12-20T00:37:29;95112.53;;;-1.82;82.53
10706;BME280;5404;42.656;23.336;2023-12-20T00:39:54;95115.09;;;-1.85;82.21
10706;BME280;5404;42.656;23.336;2023-12-20T00:42:19;95100.50;;;-1.88;82.68
10706;BME280;5404;42.656;23.336;2023-12-20T00:44:45;95101.75;;;-1.85;82.58
10706;BME280;5404;42.656;23.336;2023-12-20T00:47:10;95097.31;;;-1.81;82.60
10706;BME280;5404;42.656;23.336;2023-12-20T00:49:36;95099.34;;;-1.78;82.42
10706;BME280;5404;42.656;23.336;2023-12-20T00:52:01;95096.19;;;-1.80;82.25
10706;BME280;5404;42.656;23.336;2023-12-20T00:54:27;95093.53;;;-1.80;82.22
10706;BME280;5404;42.656;23.336;2023-12-20T00:56:52;95073.81;;;-1.97;81.80
10706;BME280;5404;42.656;23.336;2023-12-20T00:59:19;95100.44;;;-1.79;81.76
10706;BME280;5404;42.656;23.336;2023-12-20T01:01:44;95087.25;;;-1.84;81.87
10706;BME280;5404;42.656;23.336;2023-12-20T01:04:09;95096.75;;;-1.95;82.16
10706;BME280;5404;42.656;23.336;2023-12-20T01:09:10;95079.09;;;-2.09;81.75
10706;BME280;5404;42.656;23.336;2023-12-20T01:11:36;95075.31;;;-2.08;82.39
10706;BME280;5404;42.656;23.336;2023-12-20T01:14:01;95074.34;;;-2.03;81.94
10706;BME280;5404;42.656;23.336;2023-12-20T01:16:26;95074.50;;;-2.00;81.83
10706;BME280;5404;42.656;23.336;2023-12-20T01:18:52;95075.13;;;-2.03;81.92
10706;BME280;5404;42.656;23.336;2023-12-20T01:21:17;95071.72;;;-2.12;81.59
10706;BME280;5404;42.656;23.336;2023-12-20T01:23:43;95065.47;;;-2.16;81.99
10706;BME280;5404;42.656;23.336;2023-12-20T01:26:08;95037.84;;;-2.20;81.88
10706;BME280;5404;42.656;23.336;2023-12-20T01:28:34;95064.44;;;-2.32;81.85
10706;BME280;5404;42.656;23.336;2023-12-20T01:30:59;95049.03;;;-2.26;81.87
10706;BME280;5404;42.656;23.336;2023-12-20T01:33:25;95030.03;;;-2.25;81.81
10706;BME280;5404;42.656;23.336;2023-12-20T01:35:50;95045.09;;;-2.20;82.10
10706;BME280;5404;42.656;23.336;2023-12-20T01:38:16;95053.22;;;-2.17;82.54
10706;BME280;5404;42.656;23.336;2023-12-20T01:40:44;95000.28;;;-2.35;82.63
10706;BME280;5404;42.656;23.336;2023-12-20T01:43:09;95042.34;;;-2.12;82.75
10706;BME280;5404;42.656;23.336;2023-12-20T01:45:36;95035.91;;;-2.11;82.62
10706;BME280;5404;42.656;23.336;2023-12-20T01:48:02;95033.03;;;-2.06;82.91
10706;BME280;5404;42.656;23.336;2023-12-20T01:50:29;95026.16;;;-2.07;82.75
10706;BME280;5404;42.656;23.336;2023-12-20T01:52:58;95021.16;;;-2.08;82.38
10706;BME280;5404;42.656;23.336;2023-12-20T01:55:27;95006.47;;;-2.23;82.43
10706;BME280;5404;42.656;23.336;2023-12-20T01:57:53;95014.28;;;-2.18;82.71
10706;BME280;5404;42.656;23.336;2023-12-20T02:00:19;95013.97;;;-2.16;82.22
10706;BME280;5404;42.656;23.336;2023-12-20T02:02:50;95020.41;;;-2.17;82.23
10706;BME280;5404;42.656;23.336;2023-12-20T02:05:16;95011.94;;;-2.19;81.87
10706;BME280;5404;42.656;23.336;2023-12-20T02:07:42;95008.69;;;-2.25;82.27
10706;BME280;5404;42.656;23.336;2023-12-20T02:10:07;95006.22;;;-2.30;82.28
10706;BME280;5404;42.656;23.336;2023-12-20T02:12:33;95005.50;;;-2.18;81.93
10706;BME280;5404;42.656;23.336;2023-12-20T02:14:58;95005.38;;;-2.22;81.57
10706;BME280;5404;42.656;23.336;2023-12-20T02:17:25;94993.78;;;-2.26;81.48
10706;BME280;5404;42.656;23.336;2023-12-20T02:19:51;94993.84;;;-2.34;82.10
10706;BME280;5404;42.656;23.336;2023-12-20T02:22:16;94990.72;;;-2.37;82.02
10706;BME280;5404;42.656;23.336;2023-12-20T02:24:41;94990.84;;;-2.33;82.13
10706;BME280;5404;42.656;23.336;2023-12-20T02:27:07;94991.66;;;-2.41;81.80
10706;BME280;5404;42.656;23.336;2023-12-20T02:29:34;94989.00;;;-2.41;81.78
10706;BME280;5404;42.656;23.336;2023-12-20T02:31:59;94993.69;;;-2.38;81.66
10706;BME280;5404;42.656;23.336;2023-12-20T02:34:25;94983.66;;;-2.41;81.85
10706;BME280;5404;42.656;23.336;2023-12-20T02:36:50;94968.44;;;-2.41;81.14
10706;BME280;5404;42.656;23.336;2023-12-20T02:39:16;94965.66;;;-2.44;81.64
10706;BME280;5404;42.656;23.336;2023-12-20T02:41:41;94979.75;;;-2.44;81.40
10706;BME280;5404;42.656;23.336;2023-12-20T02:44:07;94960.59;;;-2.66;81.98
10706;BME280;5404;42.656;23.336;2023-12-20T02:46:32;94956.53;;;-2.72;81.98
10706;BME280;5404;42.656;23.336;2023-12-20T02:48:57;94965.44;;;-2.68;82.04
10706;BME280;5404;42.656;23.336;2023-12-20T02:51:23;94967.03;;;-2.67;82.05
10706;BME280;5404;42.656;23.336;2023-12-20T02:53:48;94971.72;;;-2.64;81.76
10706;BME280;5404;42.656;23.336;2023-12-20T02:56:14;94961.50;;;-2.62;81.43
10706;BME280;5404;42.656;23.336;2023-12-20T02:58:39;94958.38;;;-2.64;81.61
10706;BME280;5404;42.656;23.336;2023-12-20T03:01:05;94971.22;;;-2.58;81.40
10706;BME280;5404;42.656;23.336;2023-12-20T03:03:31;94964.66;;;-2.69;81.54
10706;BME280;5404;42.656;23.336;2023-12-20T03:05:57;94961.44;;;-2.83;81.68
10706;BME280;5404;42.656;23.336;2023-12-20T03:08:22;94969.31;;;-2.87;81.86
10706;BME280;5404;42.656;23.336;2023-12-20T03:10:48;94963.78;;;-2.82;82.28
10706;BME280;5404;42.656;23.336;2023-12-20T03:13:13;94959.53;;;-2.74;82.13
10706;BME280;5404;42.656;23.336;2023-12-20T03:15:39;94959.81;;;-2.67;81.89
10706;BME280;5404;42.656;23.336;2023-12-20T03:18:05;94962.16;;;-2.65;81.83
10706;BME280;5404;42.656;23.336;2023-12-20T03:20:30;94960.94;;;-2.77;82.08
10706;BME280;5404;42.656;23.336;2023-12-20T03:22:59;94955.75;;;-2.73;82.19
10706;BME280;5404;42.656;23.336;2023-12-20T03:25:25;94961.88;;;-2.72;81.69
10706;BME280;5404;42.656;23.336;2023-12-20T03:27:50;94941.69;;;-2.82;81.80
10706;BME280;5404;42.656;23.336;2023-12-20T03:30:16;94942.91;;;-2.71;81.67
10706;BME280;5404;42.656;23.336;2023-12-20T03:32:41;94944.78;;;-2.71;81.85
10706;BME280;5404;42.656;23.336;2023-12-20T03:35:06;94933.56;;;-2.86;81.71
10706;BME280;5404;42.656;23.336;2023-12-20T03:37:32;94944.31;;;-2.73;81.88
10706;BME280;5404;42.656;23.336;2023-12-20T03:39:57;94942.13;;;-2.71;82.02
10706;BME280;5404;42.656;23.336;2023-12-20T03:42:23;94941.44;;;-2.68;81.66
10706;BME280;5404;42.656;23.336;2023-12-20T03:44:48;94947.72;;;-2.64;81.53
10706;BME280;5404;42.656;23.336;2023-12-20T03:47:13;94933.38;;;-2.81;81.61
10706;BME280;5404;42.656;23.336;2023-12-20T03:49:39;94931.28;;;-2.75;81.86
10706;BME280;5404;42.656;23.336;2023-12-20T03:52:05;94942.63;;;-2.78;81.44
10706;BME280;5404;42.656;23.336;2023-12-20T03:54:30;94922.44;;;-2.88;81.81
10706;BME280;5404;42.656;23.336;2023-12-20T03:56:55;94933.22;;;-2.84;81.55
10706;BME280;5404;42.656;23.336;2023-12-20T03:59:22;94924.63;;;-2.90;81.63
10706;BME280;5404;42.656;23.336;2023-12-20T04:01:47;94918.66;;;-2.87;81.71
10706;BME280;5404;42.656;23.336;2023-12-20T04:04:13;94927.00;;;-2.97;81.99
10706;BME280;5404;42.656;23.336;2023-12-20T04:06:39;94927.13;;;-2.85;81.88
10706;BME280;5404;42.656;23.336;2023-12-20T04:09:05;94928.09;;;-2.98;81.65
10706;BME280;5404;42.656;23.336;2023-12-20T04:11:30;94922.94;;;-2.94;81.57
10706;BME280;5404;42.656;23.336;2023-12-20T04:13:55;94924.19;;;-2.92;81.77
10706;BME280;5404;42.656;23.336;2023-12-20T04:16:21;94917.09;;;-2.88;81.38
10706;BME280;5404;42.656;23.336;2023-12-20T04:18:46;94909.13;;;-2.96;81.37
10706;BME280;5404;42.656;23.336;2023-12-20T04:21:11;94908.19;;;-2.92;81.64
10706;BME280;5404;42.656;23.336;2023-12-20T04:23:37;94912.81;;;-3.09;81.56
10706;BME280;5404;42.656;23.336;2023-12-20T04:26:02;94899.47;;;-3.09;81.97
10706;BME280;5404;42.656;23.336;2023-12-20T04:28:28;94911.63;;;-2.91;81.77
10706;BME280;5404;42.656;23.336;2023-12-20T04:30:55;94900.03;;;-2.95;81.28
10706;BME280;5404;42.656;23.336;2023-12-20T04:33:21;94887.69;;;-3.00;81.69
10706;BME280;5404;42.656;23.336;2023-12-20T04:35:47;94887.81;;;-2.96;82.15
10706;BME280;5404;42.656;23.336;2023-12-20T04:38:12;94889.19;;;-2.90;81.50
10706;BME280;5404;42.656;23.336;2023-12-20T04:40:38;94890.78;;;-2.98;81.59
10706;BME280;5404;42.656;23.336;2023-12-20T04:43:04;94890.06;;;-3.07;81.02
10706;BME280;5404;42.656;23.336;2023-12-20T04:45:29;94889.31;;;-3.16;81.14
10706;BME280;5404;42.656;23.336;2023-12-20T04:47:55;94888.84;;;-3.18;81.65
10706;BME280;5404;42.656;23.336;2023-12-20T04:50:20;94882.91;;;-3.15;81.54
10706;BME280;5404;42.656;23.336;2023-12-20T04:52:46;94885.09;;;-3.17;81.43
10706;BME280;5404;42.656;23.336;2023-12-20T04:55:12;94889.31;;;-3.16;81.50
10706;BME280;5404;42.656;23.336;2023-12-20T04:57:37;94881.94;;;-3.10;81.15
10706;BME280;5404;42.656;23.336;2023-12-20T05:00:03;94881.34;;;-3.16;81.28
10706;BME280;5404;42.656;23.336;2023-12-20T05:02:29;94876.69;;;-3.28;81.39
10706;BME280;5404;42.656;23.336;2023-12-20T05:04:55;94876.03;;;-3.25;81.48
10706;BME280;5404;42.656;23.336;2023-12-20T05:07:20;94876.81;;;-3.24;81.10
10706;BME280;5404;42.656;23.336;2023-12-20T05:09:46;94878.72;;;-3.33;81.22
10706;BME280;5404;42.656;23.336;2023-12-20T05:12:11;94870.44;;;-3.32;81.42
10706;BME280;5404;42.656;23.336;2023-12-20T05:14:36;94879.38;;;-3.36;80.98
10706;BME280;5404;42.656;23.336;2023-12-20T05:17:02;94871.09;;;-3.35;81.09
10706;BME280;5404;42.656;23.336;2023-12-20T05:19:28;94872.16;;;-3.27;81.37
10706;BME280;5404;42.656;23.336;2023-12-20T05:21:53;94874.63;;;-3.22;81.40
10706;BME280;5404;42.656;23.336;2023-12-20T05:24:19;94865.75;;;-3.35;81.39
10706;BME280;5404;42.656;23.336;2023-12-20T05:26:44;94867.44;;;-3.30;81.65
10706;BME280;5404;42.656;23.336;2023-12-20T05:29:10;94864.75;;;-3.22;81.17
10706;BME280;5404;42.656;23.336;2023-12-20T05:31:35;94855.97;;;-3.22;81.37
10706;BME280;5404;42.656;23.336;2023-12-20T05:34:00;94859.94;;;-3.28;81.57
10706;BME280;5404;42.656;23.336;2023-12-20T05:36:26;94852.94;;;-3.41;81.33
10706;BME280;5404;42.656;23.336;2023-12-20T05:38:51;94852.75;;;-3.36;81.50
10706;BME280;5404;42.656;23.336;2023-12-20T05:41:16;94857.97;;;-3.48;82.00
10706;BME280;5404;42.656;23.336;2023-12-20T05:43:42;94851.19;;;-3.37;81.90
10706;BME280;5404;42.656;23.336;2023-12-20T05:46:10;94847.97;;;-3.51;82.35
10706;BME280;5404;42.656;23.336;2023-12-20T05:48:37;94852.19;;;-3.50;81.96
10706;BME280;5404;42.656;23.336;2023-12-20T05:51:02;94847.38;;;-3.66;82.86
10706;BME280;5404;42.656;23.336;2023-12-20T05:53:28;94847.97;;;-3.60;82.85
10706;BME280;5404;42.656;23.336;2023-12-20T05:55:53;94839.06;;;-3.56;82.52
10706;BME280;5404;42.656;23.336;2023-12-20T05:58:19;94843.09;;;-3.49;82.63
10706;BME280;5404;42.656;23.336;2023-12-20T06:00:44;94839.22;;;-3.69;82.87
10706;BME280;5404;42.656;23.336;2023-12-20T06:03:09;94831.78;;;-3.84;83.41
10706;BME280;5404;42.656;23.336;2023-12-20T06:05:35;94836.81;;;-3.91;83.88
10706;BME280;5404;42.656;23.336;2023-12-20T06:08:00;94839.44;;;-3.83;83.75
10706;BME280;5404;42.656;23.336;2023-12-20T06:10:28;94838.13;;;-3.68;83.47
10706;BME280;5404;42.656;23.336;2023-12-20T06:12:54;94839.16;;;-3.90;83.71
10706;BME280;5404;42.656;23.336;2023-12-20T06:15:19;94835.19;;;-3.75;83.63
10706;BME280;5404;42.656;23.336;2023-12-20T06:17:45;94842.25;;;-3.71;83.17
10706;BME280;5404;42.656;23.336;2023-12-20T06:20:12;94839.41;;;-3.66;83.07
10706;BME280;5404;42.656;23.336;2023-12-20T06:22:38;94828.06;;;-3.92;83.34
10706;BME280;5404;42.656;23.336;2023-12-20T06:25:04;94836.66;;;-3.95;84.02
10706;BME280;5404;42.656;23.336;2023-12-20T06:27:30;94853.31;;;-3.69;84.09
10706;BME280;5404;42.656;23.336;2023-12-20T06:29:57;94852.53;;;-3.61;84.11
10706;BME280;5404;42.656;23.336;2023-12-20T06:32:22;94834.97;;;-3.62;84.03
10706;BME280;5404;42.656;23.336;2023-12-20T06:34:48;94842.72;;;-3.39;84.04
10706;BME280;5404;42.656;23.336;2023-12-20T06:37:14;94845.63;;;-3.24;83.62
10706;BME280;5404;42.656;23.336;2023-12-20T06:39:40;94840.72;;;-3.13;83.60
10706;BME280;5404;42.656;23.336;2023-12-20T06:42:05;94841.91;;;-3.02;82.66
10706;BME280;5404;42.656;23.336;2023-12-20T06:44:31;94839.56;;;-3.03;82.72
10706;BME280;5404;42.656;23.336;2023-12-20T06:46:57;94826.66;;;-2.93;82.95
10706;BME280;5404;42.656;23.336;2023-12-20T06:49:22;94817.66;;;-3.09;82.97
10706;BME280;5404;42.656;23.336;2023-12-20T06:51:48;94828.53;;;-2.93;82.87
10706;BME280;5404;42.656;23.336;2023-12-20T06:54:13;94825.63;;;-2.80;82.22
10706;BME280;5404;42.656;23.336;2023-12-20T06:56:38;94815.59;;;-2.83;82.18
10706;BME280;5404;42.656;23.336;2023-12-20T06:59:04;94829.59;;;-2.65;81.62
10706;BME280;5404;42.656;23.336;2023-12-20T07:01:29;94820.41;;;-2.55;81.97
10706;BME280;5404;42.656;23.336;2023-12-20T07:03:55;94810.72;;;-2.39;81.54
10706;BME280;5404;42.656;23.336;2023-12-20T07:06:20;94811.56;;;-2.47;81.28
10706;BME280;5404;42.656;23.336;2023-12-20T07:08:46;94816.78;;;-2.51;81.25
10706;BME280;5404;42.656;23.336;2023-12-20T07:11:12;94817.22;;;-2.28;81.63
10706;BME280;5404;42.656;23.336;2023-12-20T07:13:37;94815.59;;;-2.20;80.85
10706;BME280;5404;42.656;23.336;2023-12-20T07:16:03;94806.13;;;-2.18;80.31
10706;BME280;5404;42.656;23.336;2023-12-20T07:18:28;94795.69;;;-2.11;80.41
10706;BME280;5404;42.656;23.336;2023-12-20T07:20:54;94795.09;;;-1.83;80.20
10706;BME280;5404;42.656;23.336;2023-12-20T07:23:20;94788.88;;;-1.75;79.82
10706;BME280;5404;42.656;23.336;2023-12-20T07:25:46;94788.78;;;-1.67;79.18
10706;BME280;5404;42.656;23.336;2023-12-20T07:28:12;94787.63;;;-1.90;79.24
10706;BME280;5404;42.656;23.336;2023-12-20T07:30:37;94778.41;;;-1.68;79.72
10706;BME280;5404;42.656;23.336;2023-12-20T07:33:03;94765.06;;;-1.68;79.34
10706;BME280;5404;42.656;23.336;2023-12-20T07:35:28;94784.66;;;-1.52;79.16
10706;BME280;5404;42.656;23.336;2023-12-20T07:37:54;94781.78;;;-1.59;79.63
10706;BME280;5404;42.656;23.336;2023-12-20T07:40:19;94783.31;;;-1.46;79.46
10706;BME280;5404;42.656;23.336;2023-12-20T07:42:44;94776.63;;;-1.03;79.47
10706;BME280;5404;42.656;23.336;2023-12-20T07:45:10;94782.41;;;-1.01;77.96
10706;BME280;5404;42.656;23.336;2023-12-20T07:47:38;94783.97;;;-0.88;77.90
10706;BME280;5404;42.656;23.336;2023-12-20T07:50:04;94782.28;;;-0.81;77.58
10706;BME280;5404;42.656;23.336;2023-12-20T07:52:29;94777.91;;;-0.85;77.24
10706;BME280;5404;42.656;23.336;2023-12-20T07:54:55;94777.94;;;-0.97;77.95
10706;BME280;5404;42.656;23.336;2023-12-20T07:57:21;94776.56;;;-0.67;77.96
10706;BME280;5404;42.656;23.336;2023-12-20T07:59:46;94776.75;;;-0.60;76.60
10706;BME280;5404;42.656;23.336;2023-12-20T08:02:12;94774.59;;;-0.54;77.09
10706;BME280;5404;42.656;23.336;2023-12-20T08:04:37;94760.19;;;-0.50;76.71
10706;BME280;5404;42.656;23.336;2023-12-20T08:07:03;94776.38;;;-0.18;76.23
10706;BME280;5404;42.656;23.336;2023-12-20T08:09:29;94764.47;;;-0.05;75.05
10706;BME280;5404;42.656;23.336;2023-12-20T08:11:54;94763.28;;;0.08;75.18
10706;BME280;5404;42.656;23.336;2023-12-20T08:14:20;94754.63;;;-0.01;75.01
10706;BME280;5404;42.656;23.336;2023-12-20T08:16:45;94752.56;;;0.08;74.78
10706;BME280;5404;42.656;23.336;2023-12-20T08:19:11;94740.50;;;0.14;74.58
10706;BME280;5404;42.656;23.336;2023-12-20T08:21:36;94752.09;;;0.50;74.19
10706;BME280;5404;42.656;23.336;2023-12-20T08:24:02;94738.75;;;0.37;73.58
10706;BME280;5404;42.656;23.336;2023-12-20T08:26:28;94758.09;;;0.78;73.61
10706;BME280;5404;42.656;23.336;2023-12-20T08:28:53;94740.88;;;0.79;71.76
10706;BME280;5404;42.656;23.336;2023-12-20T08:31:19;94756.94;;;0.95;72.63
10706;BME280;5404;42.656;23.336;2023-12-20T08:33:45;94736.34;;;0.64;73.32
10706;BME280;5404;42.656;23.336;2023-12-20T08:36:11;94731.81;;;0.68;72.74
10706;BME280;5404;42.656;23.336;2023-12-20T08:38:37;94721.38;;;0.16;74.30
10706;BME280;5404;42.656;23.336;2023-12-20T08:41:03;94732.88;;;0.48;74.79
10706;BME280;5404;42.656;23.336;2023-12-20T08:43:32;94722.81;;;0.60;74.24
10706;BME280;5404;42.656;23.336;2023-12-20T08:46:00;94719.38;;;0.60;74.39
10706;BME280;5404;42.656;23.336;2023-12-20T08:48:25;94704.97;;;0.17;75.14
10706;BME280;5404;42.656;23.336;2023-12-20T08:50:50;94713.34;;;0.31;75.30
10706;BME280;5404;42.656;23.336;2023-12-20T08:53:20;94716.09;;;0.51;75.10
10706;BME280;5404;42.656;23.336;2023-12-20T08:55:46;94727.84;;;0.62;74.71
10706;BME280;5404;42.656;23.336;2023-12-20T08:58:11;94718.13;;;0.73;74.87
10706;BME280;5404;42.656;23.336;2023-12-20T09:00:37;94706.38;;;0.77;73.43
10706;BME280;5404;42.656;23.336;2023-12-20T09:03:04;94702.47;;;0.75;74.05
10706;BME280;5404;42.656;23.336;2023-12-20T09:05:29;94700.59;;;0.95;73.37
10706;BME280;5404;42.656;23.336;2023-12-20T09:07:55;94689.81;;;1.10;73.80
10706;BME280;5404;42.656;23.336;2023-12-20T09:10:20;94672.41;;;1.20;73.23
10706;BME280;5404;42.656;23.336;2023-12-20T09:12:54;94659.75;;;1.01;72.50
10706;BME280;5404;42.656;23.336;2023-12-20T09:15:25;94663.44;;;1.12;73.62
10706;BME280;5404;42.656;23.336;2023-12-20T09:17:50;94647.44;;;1.39;72.22
10706;BME280;5404;42.656;23.336;2023-12-20T09:20:16;94649.00;;;1.40;72.02
10706;BME280;5404;42.656;23.336;2023-12-20T09:22:41;94641.22;;;1.54;72.55
10706;BME280;5404;42.656;23.336;2023-12-20T09:25:08;94622.84;;;1.56;72.12
10706;BME280;5404;42.656;23.336;2023-12-20T09:27:33;94623.81;;;1.67;72.34
10706;BME280;5404;42.656;23.336;2023-12-20T09:29:58;94615.69;;;1.86;71.73
10706;BME280;5404;42.656;23.336;2023-12-20T09:32:24;94614.28;;;1.70;71.31
10706;BME280;5404;42.656;23.336;2023-12-20T09:34:49;94607.47;;;1.76;70.81
10706;BME280;5404;42.656;23.336;2023-12-20T09:37:15;94617.59;;;1.86;70.91
10706;BME280;5404;42.656;23.336;2023-12-20T09:39:40;94606.91;;;1.89;70.81
10706;BME280;5404;42.656;23.336;2023-12-20T09:42:06;94594.53;;;1.85;70.20
10706;BME280;5404;42.656;23.336;2023-12-20T09:44:32;94587.69;;;1.42;72.07
10706;BME280;5404;42.656;23.336;2023-12-20T09:47:02;94586.66;;;1.50;71.82
10706;BME280;5404;42.656;23.336;2023-12-20T09:49:28;94584.59;;;1.63;72.03
10706;BME280;5404;42.656;23.336;2023-12-20T09:51:54;94588.44;;;1.84;71.52
10706;BME280;5404;42.656;23.336;2023-12-20T09:54:21;94576.34;;;1.98;70.87
10706;BME280;5404;42.656;23.336;2023-12-20T09:56:48;94571.75;;;2.24;71.65
10706;BME280;5404;42.656;23.336;2023-12-20T09:59:14;94563.66;;;3.14;68.40
10706;BME280;5404;42.656;23.336;2023-12-20T10:01:40;94565.56;;;3.91;65.04
10706;BME280;5404;42.656;23.336;2023-12-20T10:04:08;94569.06;;;4.50;64.43
10706;BME280;5404;42.656;23.336;2023-12-20T10:06:39;94554.13;;;6.31;58.84
10706;BME280;5404;42.656;23.336;2023-12-20T10:09:04;94548.81;;;7.25;56.09
10706;BME280;5404;42.656;23.336;2023-12-20T10:11:31;94552.38;;;7.08;55.89
10706;BME280;5404;42.656;23.336;2023-12-20T10:13:59;94534.03;;;6.21;56.63
10706;BME280;5404;42.656;23.336;2023-12-20T10:16:28;94534.75;;;6.57;57.94
10706;BME280;5404;42.656;23.336;2023-12-20T10:18:54;94540.34;;;8.75;53.11
10706;BME280;5404;42.656;23.336;2023-12-20T10:21:19;94514.88;;;10.37;48.14
10706;BME280;5404;42.656;23.336;2023-12-20T10:23:45;94516.91;;;10.95;46.42
10706;BME280;5404;42.656;23.336;2023-12-20T10:26:19;94517.84;;;11.64;47.58
10706;BME280;5404;42.656;23.336;2023-12-20T10:28:46;94506.97;;;12.90;42.61
10706;BME280;5404;42.656;23.336;2023-12-20T10:31:34;94519.28;;;12.99;42.51
10706;BME280;5404;42.656;23.336;2023-12-20T10:34:00;94520.75;;;13.16;41.94
10706;BME280;5404;42.656;23.336;2023-12-20T10:36:27;94523.78;;;13.34;43.17
10706;BME280;5404;42.656;23.336;2023-12-20T10:38:54;94518.69;;;13.61;40.27
10706;BME280;5404;42.656;23.336;2023-12-20T10:41:26;94518.94;;;14.18;38.64
10706;BME280;5404;42.656;23.336;2023-12-20T10:43:54;94525.06;;;13.84;38.39
10706;BME280;5404;42.656;23.336;2023-12-20T10:46:20;94516.56;;;13.40;39.64
10706;BME280;5404;42.656;23.336;2023-12-20T10:48:46;94507.34;;;12.76;40.50
10706;BME280;5404;42.656;23.336;2023-12-20T10:51:14;94512.13;;;12.72;40.49
10706;BME280;5404;42.656;23.336;2023-12-20T10:53:42;94496.47;;;11.95;42.41
10706;BME280;5404;42.656;23.336;2023-12-20T10:56:12;94481.63;;;11.80;41.33
10706;BME280;5404;42.656;23.336;2023-12-20T10:58:41;94494.28;;;9.59;45.84
10706;BME280;5404;42.656;23.336;2023-12-20T11:01:08;94476.03;;;8.31;49.11
10706;BME280;5404;42.656;23.336;2023-12-20T11:03:35;94457.97;;;7.06;51.24
10706;BME280;5404;42.656;23.336;2023-12-20T11:06:40;94442.06;;;6.25;54.75
10706;BME280;5404;42.656;23.336;2023-12-20T11:09:24;94452.94;;;5.47;56.80
10706;BME280;5404;42.656;23.336;2023-12-20T11:14:46;94440.06;;;4.73;60.69
10706;BME280;5404;42.656;23.336;2023-12-20T11:17:12;94451.47;;;4.42;60.44
10706;BME280;5404;42.656;23.336;2023-12-20T11:22:24;94433.06;;;3.82;64.23
10706;BME280;5404;42.656;23.336;2023-12-20T11:24:51;94436.13;;;3.29;66.25
10706;BME280;5404;42.656;23.336;2023-12-20T11:27:19;94426.19;;;3.33;66.39
10706;BME280;5404;42.656;23.336;2023-12-20T11:29:51;94427.59;;;3.68;65.63
10706;BME280;5404;42.656;23.336;2023-12-20T11:35:19;94350.31;;;3.86;64.34
10706;BME280;5404;42.656;23.336;2023-12-20T11:37:49;94387.09;;;4.29;64.38
10706;BME280;5404;42.656;23.336;2023-12-20T11:40:17;94381.13;;;5.21;61.99
10706;BME280;5404;42.656;23.336;2023-12-20T11:42:49;94378.69;;;6.22;59.26
10706;BME280;5404;42.656;23.336;2023-12-20T11:45:17;94379.69;;;6.60;57.60
10706;BME280;5404;42.656;23.336;2023-12-20T11:47:46;94368.81;;;7.26;55.45
10706;BME280;5404;42.656;23.336;2023-12-20T11:50:12;94368.56;;;7.55;54.51
10706;BME280;5404;42.656;23.336;2023-12-20T11:52:38;94358.94;;;7.91;53.97
10706;BME280;5404;42.656;23.336;2023-12-20T11:55:04;94351.66;;;8.18;53.12
10706;BME280;5404;42.656;23.336;2023-12-20T11:57:30;94357.38;;;8.31;53.63
10706;BME280;5404;42.656;23.336;2023-12-20T11:59:56;94348.34;;;8.98;52.77
10706;BME280;5404;42.656;23.336;2023-12-20T12:02:22;94325.91;;;8.94;51.32
10706;BME280;5404;42.656;23.336;2023-12-20T12:04:49;94329.19;;;9.09;52.29
10706;BME280;5404;42.656;23.336;2023-12-20T12:07:16;94316.09;;;9.24;49.41
10706;BME280;5404;42.656;23.336;2023-12-20T12:09:42;94317.69;;;8.71;51.14
10706;BME280;5404;42.656;23.336;2023-12-20T12:12:07;94314.66;;;8.66;51.68
10706;BME280;5404;42.656;23.336;2023-12-20T12:14:33;94313.94;;;8.88;51.69
10706;BME280;5404;42.656;23.336;2023-12-20T12:17:00;94290.66;;;8.60;52.35
10706;BME280;5404;42.656;23.336;2023-12-20T12:19:26;94291.50;;;7.93;53.61
10706;BME280;5404;42.656;23.336;2023-12-20T12:22:12;94300.47;;;7.53;55.22
10706;BME280;5404;42.656;23.336;2023-12-20T12:24:48;94302.09;;;7.39;55.14
10706;BME280;5404;42.656;23.336;2023-12-20T12:27:15;94299.84;;;7.34;56.12
10706;BME280;5404;42.656;23.336;2023-12-20T12:29:43;94293.03;;;7.16;56.29
10706;BME280;5404;42.656;23.336;2023-12-20T12:32:25;94293.41;;;6.66;57.87
10706;BME280;5404;42.656;23.336;2023-12-20T12:34:50;94287.75;;;6.43;58.56
10706;BME280;5404;42.656;23.336;2023-12-20T12:37:15;94288.09;;;6.48;58.25
10706;BME280;5404;42.656;23.336;2023-12-20T12:39:41;94277.47;;;6.16;59.60
10706;BME280;5404;42.656;23.336;2023-12-20T12:42:06;94286.19;;;5.37;62.13
10706;BME280;5404;42.656;23.336;2023-12-20T12:44:32;94287.38;;;4.79;64.46
10706;BME280;5404;42.656;23.336;2023-12-20T12:46:57;94283.13;;;4.60;64.28
10706;BME280;5404;42.656;23.336;2023-12-20T12:49:22;94288.53;;;4.53;65.04
10706;BME280;5404;42.656;23.336;2023-12-20T12:51:48;94288.88;;;4.30;66.12
10706;BME280;5404;42.656;23.336;2023-12-20T12:54:13;94283.84;;;4.18;65.98
10706;BME280;5404;42.656;23.336;2023-12-20T12:56:41;94286.09;;;4.06;66.34
10706;BME280;5404;42.656;23.336;2023-12-20T12:59:07;94276.84;;;4.07;67.03
10706;BME280;5404;42.656;23.336;2023-12-20T13:01:32;94278.78;;;4.06;67.56
10706;BME280;5404;42.656;23.336;2023-12-20T13:03:58;94291.00;;;3.75;67.93
10706;BME280;5404;42.656;23.336;2023-12-20T13:06:23;94289.81;;;3.73;68.44
10706;BME280;5404;42.656;23.336;2023-12-20T13:08:49;94277.47;;;3.65;68.25